createdAt,value
2022-10-02T00:01:27.807Z,11.18
2022-10-02T00:03:54.516Z,11.17
2022-10-02T00:06:23.664Z,11.18
2022-10-02T00:08:52.852Z,11.17
2022-10-02T00:11:22.942Z,11.15
2022-10-02T00:13:58.402Z,11.19
2022-10-02T00:16:41.538Z,11.15
2022-10-02T00:19:12.353Z,11.12
2022-10-02T00:21:38.969Z,11.11
2022-10-02T00:24:06.966Z,11.11
2022-10-02T00:27:02.869Z,11.07
2022-10-02T00:29:29.702Z,11.07
2022-10-02T00:31:56.335Z,11.08
2022-10-02T00:34:32.113Z,11.05
2022-10-02T00:37:16.975Z,11.01
2022-10-02T00:39:55.809Z,10.97
2022-10-02T00:42:34.862Z,10.96
2022-10-02T00:45:19.617Z,10.91
2022-10-02T00:47:53.501Z,10.96
2022-10-02T00:50:31.953Z,10.95
2022-10-02T00:53:01.592Z,10.94
2022-10-02T00:55:28.135Z,10.92
2022-10-02T00:58:02.281Z,10.89
2022-10-02T01:00:28.909Z,10.95
2022-10-02T01:03:04.635Z,10.94
2022-10-02T01:05:32.750Z,10.91
2022-10-02T01:07:59.449Z,10.91
2022-10-02T01:10:26.660Z,10.87
2022-10-02T01:12:54.288Z,10.89
2022-10-02T01:15:22.574Z,10.85
2022-10-02T01:17:52.475Z,10.91
2022-10-02T01:20:22.759Z,10.87
2022-10-02T01:23:08.397Z,10.82
2022-10-02T01:25:35.026Z,10.76
2022-10-02T01:28:01.766Z,10.66
2022-10-02T01:30:29.906Z,10.60
2022-10-02T01:32:58.028Z,10.55
2022-10-02T01:35:31.635Z,10.49
2022-10-02T01:37:59.141Z,10.47
2022-10-02T01:40:28.311Z,10.50
2022-10-02T01:42:56.213Z,10.33
2022-10-02T01:45:30.318Z,10.25
2022-10-02T01:48:08.941Z,10.20
2022-10-02T01:50:58.566Z,10.19
2022-10-02T01:53:33.181Z,10.13
2022-10-02T01:56:15.565Z,10.09
2022-10-02T01:58:51.885Z,10.05
2022-10-02T02:01:24.266Z,10.10
2022-10-02T02:04:10.381Z,10.08
2022-10-02T02:06:46.389Z,10.10
2022-10-02T02:09:18.612Z,10.02
2022-10-02T02:11:50.190Z,9.97
2022-10-02T02:14:22.837Z,9.99
2022-10-02T02:17:05.694Z,9.99
2022-10-02T02:19:39.989Z,10.00
2022-10-02T02:22:17.440Z,10.04
2022-10-02T02:25:04.719Z,10.00
2022-10-02T02:27:34.817Z,10.01
2022-10-02T02:30:04.230Z,10.01
2022-10-02T02:32:35.278Z,9.96
2022-10-02T02:35:07.672Z,9.95
2022-10-02T02:37:36.325Z,9.95
2022-10-02T02:40:12.332Z,9.96
2022-10-02T02:42:42.452Z,10.02
2022-10-02T02:45:27.407Z,10.02
2022-10-02T02:48:09.512Z,10.07
2022-10-02T02:50:44.784Z,10.04
2022-10-02T02:53:11.324Z,10.05
2022-10-02T02:55:44.927Z,10.04
2022-10-02T02:58:18.112Z,10.08
2022-10-02T03:00:44.829Z,10.07
2022-10-02T03:03:11.588Z,10.04
2022-10-02T03:05:42.650Z,10.02
2022-10-02T03:08:13.668Z,10.01
2022-10-02T03:10:40.270Z,10.00
2022-10-02T03:13:27.165Z,9.97
2022-10-02T03:16:16.975Z,9.98
2022-10-02T03:18:46.603Z,9.98
2022-10-02T03:21:27.345Z,9.97
2022-10-02T03:24:14.711Z,9.88
2022-10-02T03:26:45.327Z,9.90
2022-10-02T03:29:25.432Z,9.87
2022-10-02T03:31:53.191Z,9.88
2022-10-02T03:34:19.865Z,9.88
2022-10-02T03:36:46.929Z,9.96
2022-10-02T03:39:24.723Z,9.93
2022-10-02T03:41:52.038Z,9.91
2022-10-02T03:44:18.656Z,9.88
2022-10-02T03:46:45.276Z,9.93
2022-10-02T03:49:11.872Z,9.96
2022-10-02T03:51:38.468Z,9.87
2022-10-02T03:54:13.065Z,9.83
2022-10-02T03:56:46.601Z,9.79
2022-10-02T03:59:17.459Z,9.78
2022-10-02T04:01:49.411Z,9.74
2022-10-02T04:04:23.331Z,9.76
2022-10-02T04:07:06.380Z,9.64
2022-10-02T04:09:51.652Z,9.63
2022-10-02T04:12:24.051Z,9.63
2022-10-02T04:14:54.276Z,9.64
2022-10-02T04:17:24.295Z,9.58
2022-10-02T04:19:57.855Z,9.55
2022-10-02T04:22:27.613Z,9.56
2022-10-02T04:25:05.525Z,9.61
2022-10-02T04:27:38.536Z,9.60
2022-10-02T04:30:07.013Z,9.51
2022-10-02T04:32:34.496Z,9.46
2022-10-02T04:35:02.842Z,9.38
2022-10-02T04:37:39.556Z,9.40
2022-10-02T04:40:09.251Z,9.35
2022-10-02T04:42:55.824Z,9.36
2022-10-02T04:45:41.410Z,9.48
2022-10-02T04:48:08.005Z,9.45
2022-10-02T04:50:34.558Z,9.40
2022-10-02T04:53:14.329Z,9.34
2022-10-02T04:55:40.883Z,9.36
2022-10-02T04:58:25.962Z,9.27
2022-10-02T05:00:52.590Z,9.25
2022-10-02T05:03:22.244Z,9.18
2022-10-02T05:06:07.361Z,9.19
2022-10-02T05:08:42.464Z,9.17
2022-10-02T05:11:27.544Z,9.19
2022-10-02T05:14:11.287Z,9.30
2022-10-02T05:16:41.015Z,9.31
2022-10-02T05:19:19.318Z,9.38
2022-10-02T05:21:51.995Z,9.31
2022-10-02T05:24:36.473Z,9.32
2022-10-02T05:27:12.103Z,9.26
2022-10-02T05:29:38.676Z,9.16
2022-10-02T05:32:23.768Z,9.13
2022-10-02T05:34:53.590Z,9.16
2022-10-02T05:37:38.652Z,9.14
2022-10-02T05:40:17.471Z,9.16
2022-10-02T05:42:55.770Z,9.17
2022-10-02T05:45:34.730Z,9.16
2022-10-02T05:48:05.193Z,9.17
2022-10-02T05:50:34.297Z,9.23
2022-10-02T05:53:03.588Z,9.16
2022-10-02T05:55:30.146Z,9.17
2022-10-02T05:58:16.944Z,9.21
2022-10-02T06:00:47.985Z,9.20
2022-10-02T06:03:18.912Z,9.16
2022-10-02T06:05:55.311Z,9.17
2022-10-02T06:08:31.600Z,9.23
2022-10-02T06:11:03.133Z,9.24
2022-10-02T06:13:50.622Z,9.18
2022-10-02T06:16:24.249Z,9.17
2022-10-02T06:18:54.291Z,9.25
2022-10-02T06:21:23.689Z,9.25
2022-10-02T06:23:52.695Z,9.19
2022-10-02T06:26:34.983Z,9.20
2022-10-02T06:29:05.148Z,9.16
2022-10-02T06:31:34.852Z,9.08
2022-10-02T06:34:01.488Z,9.05
2022-10-02T06:36:28.178Z,9.07
2022-10-02T06:39:17.969Z,9.01
2022-10-02T06:41:47.504Z,9.07
2022-10-02T06:44:20.248Z,9.02
2022-10-02T06:46:51.188Z,9.08
2022-10-02T06:49:25.228Z,9.11
2022-10-02T06:52:08.020Z,9.08
2022-10-02T06:54:45.530Z,9.04
2022-10-02T06:57:41.542Z,9.05
2022-10-02T07:00:18.235Z,9.08
2022-10-02T07:02:50.981Z,9.11
2022-10-02T07:05:32.667Z,9.11
2022-10-02T07:08:12.136Z,9.14
2022-10-02T07:10:44.558Z,9.22
2022-10-02T07:13:26.488Z,9.20
2022-10-02T07:15:55.913Z,9.29
2022-10-02T07:18:35.016Z,9.28
2022-10-02T07:21:10.530Z,9.20
2022-10-02T07:23:40.250Z,9.06
2022-10-02T07:26:33.301Z,9.07
2022-10-02T07:29:16.512Z,9.03
2022-10-02T07:31:43.233Z,9.05
2022-10-02T07:34:13.155Z,9.11
2022-10-02T07:36:39.794Z,9.22
2022-10-02T07:39:10.165Z,9.48
2022-10-02T07:41:45.986Z,9.47
2022-10-02T07:44:18.603Z,9.51
2022-10-02T07:47:03.780Z,9.51
2022-10-02T07:49:45.476Z,9.53
2022-10-02T07:52:12.107Z,9.55
2022-10-02T07:54:44.824Z,9.48
2022-10-02T07:57:20.689Z,9.45
2022-10-02T07:59:49.009Z,9.48
2022-10-02T08:02:51.232Z,9.49
2022-10-02T08:05:23.376Z,9.58
2022-10-02T08:07:52.419Z,9.59
2022-10-02T08:10:21.872Z,9.51
2022-10-02T08:13:05.033Z,9.56
2022-10-02T08:15:34.885Z,9.61
2022-10-02T08:18:30.209Z,9.73
2022-10-02T08:20:53.833Z,9.98
2022-10-02T08:23:34.095Z,10.13
2022-10-02T08:26:00.801Z,10.28
2022-10-02T08:28:32.012Z,10.32
2022-10-02T08:30:58.929Z,10.17
2022-10-02T08:33:25.782Z,10.24
2022-10-02T08:36:07.922Z,10.25
2022-10-02T08:38:41.858Z,10.15
2022-10-02T08:41:08.712Z,10.19
2022-10-02T08:43:54.188Z,10.26
2022-10-02T08:46:22.165Z,10.36
2022-10-02T08:48:55.359Z,10.41
2022-10-02T08:51:25.668Z,10.42
2022-10-02T08:53:54.975Z,10.52
2022-10-02T08:56:21.568Z,10.53
2022-10-02T08:58:50.958Z,10.49
2022-10-02T09:01:35.093Z,10.50
2022-10-02T09:04:09.284Z,10.53
2022-10-02T09:06:39.162Z,10.52
2022-10-02T09:09:24.249Z,10.50
2022-10-02T09:12:02.407Z,10.50
2022-10-02T09:14:48.361Z,10.59
2022-10-02T09:17:39.501Z,10.66
2022-10-02T09:20:18.515Z,10.72
2022-10-02T09:22:48.113Z,10.72
2022-10-02T09:25:21.973Z,10.74
2022-10-02T09:28:07.401Z,10.75
2022-10-02T09:30:57.619Z,10.74
2022-10-02T09:33:30.130Z,10.76
2022-10-02T09:36:02.481Z,10.77
2022-10-02T09:38:47.825Z,10.76
2022-10-02T09:41:17.196Z,10.81
2022-10-02T09:43:51.255Z,10.81
2022-10-02T09:46:30.520Z,10.78
2022-10-02T09:49:20.128Z,10.76
2022-10-02T09:52:05.696Z,10.64
2022-10-02T09:54:44.100Z,10.67
2022-10-02T09:57:22.776Z,10.68
2022-10-02T09:59:55.369Z,10.77
2022-10-02T10:02:31.164Z,10.84
2022-10-02T10:05:16.212Z,10.88
2022-10-02T10:08:01.593Z,10.88
2022-10-02T10:10:28.341Z,10.94
2022-10-02T10:12:57.792Z,10.96
2022-10-02T10:15:43.030Z,11.01
2022-10-02T10:18:09.880Z,11.06
2022-10-02T10:20:36.748Z,11.16
2022-10-02T10:23:21.973Z,11.08
2022-10-02T10:25:50.394Z,11.04
2022-10-02T10:28:37.940Z,10.99
2022-10-02T10:31:13.650Z,10.95
2022-10-02T10:33:59.899Z,10.86
2022-10-02T10:36:52.660Z,11.08
2022-10-02T10:39:26.815Z,11.14
2022-10-02T10:41:53.356Z,11.28
2022-10-02T10:44:30.145Z,11.53
2022-10-02T10:47:05.800Z,11.75
2022-10-02T10:49:41.496Z,11.89
2022-10-02T10:52:35.710Z,11.96
2022-10-02T10:55:16.777Z,12.12
2022-10-02T10:57:43.315Z,12.36
2022-10-02T11:00:16.339Z,12.51
2022-10-02T11:03:01.725Z,12.97
2022-10-02T11:05:51.949Z,14.22
2022-10-02T11:08:18.604Z,15.33
2022-10-02T11:10:57.477Z,15.73
2022-10-02T11:13:26.952Z,15.62
2022-10-02T11:15:53.732Z,15.84
2022-10-02T11:18:31.477Z,16.75
2022-10-02T11:20:58.040Z,17.55
2022-10-02T11:23:30.748Z,17.50
2022-10-02T11:26:23.929Z,17.50
2022-10-02T11:29:08.948Z,17.38
2022-10-02T11:31:35.917Z,17.11
2022-10-02T11:34:21.580Z,16.66
2022-10-02T11:36:59.414Z,16.27
2022-10-02T11:39:32.187Z,15.83
2022-10-02T11:42:17.747Z,15.23
2022-10-02T11:44:47.561Z,14.84
2022-10-02T11:47:32.790Z,14.71
2022-10-02T11:50:24.859Z,14.58
2022-10-02T11:53:04.541Z,14.70
2022-10-02T11:55:49.353Z,14.81
2022-10-02T11:58:28.300Z,14.89
2022-10-02T12:00:58.830Z,15.02
2022-10-02T12:03:36.146Z,15.14
2022-10-02T12:06:11.954Z,15.43
2022-10-02T12:08:42.937Z,15.79
2022-10-02T12:11:20.382Z,15.93
2022-10-02T12:14:01.183Z,16.10
2022-10-02T12:16:48.752Z,16.15
2022-10-02T12:19:15.425Z,16.03
2022-10-02T12:22:18.830Z,15.89
2022-10-02T12:25:13.160Z,15.72
2022-10-02T12:27:54.839Z,15.62
2022-10-02T12:30:30.420Z,15.51
2022-10-02T12:33:08.235Z,15.36
2022-10-02T12:35:40.961Z,15.31
2022-10-02T12:38:07.512Z,15.40
2022-10-02T12:40:45.007Z,15.41
2022-10-02T12:43:30.727Z,15.48
2022-10-02T12:46:07.967Z,15.69
2022-10-02T12:48:47.145Z,15.77
2022-10-02T12:51:16.861Z,15.63
2022-10-02T12:54:01.919Z,15.65
2022-10-02T12:56:34.372Z,15.68
2022-10-02T12:59:16.169Z,15.51
2022-10-02T13:01:58.244Z,15.32
2022-10-02T13:04:43.347Z,15.18
2022-10-02T13:07:30.391Z,15.15
2022-10-02T13:10:15.585Z,15.20
2022-10-02T13:12:42.172Z,15.18
2022-10-02T13:15:27.150Z,15.14
2022-10-02T13:18:06.896Z,15.18
2022-10-02T13:20:38.935Z,15.13
2022-10-02T13:23:05.502Z,15.08
2022-10-02T13:25:38.097Z,14.98
2022-10-02T13:28:13.873Z,14.81
2022-10-02T13:30:48.081Z,14.62
2022-10-02T13:33:17.425Z,14.45
2022-10-02T13:35:46.844Z,14.24
2022-10-02T13:38:22.856Z,14.05
2022-10-02T13:41:07.907Z,13.85
2022-10-02T13:43:34.701Z,13.64
2022-10-02T13:46:07.801Z,13.52
2022-10-02T13:48:54.997Z,13.42
2022-10-02T13:51:31.594Z,13.29
2022-10-02T13:54:06.120Z,13.18
2022-10-02T13:56:49.427Z,13.10
2022-10-02T13:59:34.483Z,13.04
2022-10-02T14:02:21.061Z,12.94
2022-10-02T14:04:56.617Z,12.84
2022-10-02T14:07:39.195Z,12.81
2022-10-02T14:10:15.113Z,12.77
2022-10-02T14:12:52.407Z,12.73
2022-10-02T14:15:19.028Z,12.68
2022-10-02T14:17:54.557Z,12.66
2022-10-02T14:20:27.060Z,12.63
2022-10-02T14:23:12.140Z,12.63
2022-10-02T14:25:52.076Z,12.60
2022-10-02T14:28:21.675Z,12.59
2022-10-02T14:31:00.537Z,12.56
2022-10-02T14:33:39.332Z,12.54
2022-10-02T14:36:11.924Z,12.52
2022-10-02T14:38:51.422Z,12.52
2022-10-02T14:41:18.254Z,12.58
2022-10-02T14:43:51.711Z,12.60
2022-10-02T14:46:27.700Z,12.58
2022-10-02T14:49:14.553Z,12.54
2022-10-02T14:52:00.000Z,12.53
2022-10-02T14:54:45.220Z,12.50
2022-10-02T14:57:20.862Z,12.45
2022-10-02T15:00:03.327Z,12.40
2022-10-02T15:02:51.680Z,12.35
2022-10-02T15:05:27.285Z,12.31
2022-10-02T15:07:53.877Z,12.29
2022-10-02T15:10:27.997Z,12.28
2022-10-02T15:12:57.377Z,12.27
2022-10-02T15:15:33.409Z,12.25
2022-10-02T15:18:03.383Z,12.26
2022-10-02T15:20:48.895Z,12.26
2022-10-02T15:23:41.563Z,12.26
2022-10-02T15:26:17.347Z,12.27
2022-10-02T15:28:58.971Z,12.27
2022-10-02T15:31:28.437Z,12.27
2022-10-02T15:34:31.158Z,12.25
2022-10-02T15:37:00.693Z,12.25
2022-10-02T15:39:33.154Z,12.28
2022-10-02T15:42:04.844Z,12.28
2022-10-02T15:44:49.606Z,12.25
2022-10-02T15:47:29.726Z,12.23
2022-10-02T15:49:56.507Z,12.22
2022-10-02T15:52:23.112Z,12.22
2022-10-02T15:54:55.742Z,12.19
2022-10-02T15:57:40.965Z,12.15
2022-10-02T16:00:15.487Z,12.12
2022-10-02T16:02:42.107Z,12.10
2022-10-02T16:05:29.974Z,12.11
2022-10-02T16:08:05.501Z,12.11
2022-10-02T16:10:54.881Z,12.10
2022-10-02T16:13:43.512Z,12.09
2022-10-02T16:16:19.130Z,12.09
2022-10-02T16:18:51.861Z,12.11
2022-10-02T16:21:39.358Z,12.11
2022-10-02T16:24:18.234Z,12.12
2022-10-02T16:26:54.232Z,12.16
2022-10-02T16:29:27.575Z,12.18
2022-10-02T16:31:54.309Z,12.19
2022-10-02T16:34:23.924Z,12.20
2022-10-02T16:36:50.537Z,12.18
2022-10-02T16:39:19.998Z,12.19
2022-10-02T16:42:05.132Z,12.16
2022-10-02T16:44:34.549Z,12.15
2022-10-02T16:47:04.603Z,12.18
2022-10-02T16:49:51.148Z,12.18
2022-10-02T16:52:39.189Z,12.17
2022-10-02T16:55:08.538Z,12.19
2022-10-02T16:57:35.223Z,12.17
2022-10-02T17:00:16.277Z,12.19
2022-10-02T17:02:46.250Z,12.17
2022-10-02T17:05:31.835Z,12.16
2022-10-02T17:08:05.626Z,12.23
2022-10-02T17:11:03.502Z,12.27
2022-10-02T17:13:42.848Z,12.33
2022-10-02T17:16:12.467Z,12.41
2022-10-02T17:18:48.500Z,12.52
2022-10-02T17:21:15.048Z,12.54
2022-10-02T17:23:44.491Z,12.53
2022-10-02T17:26:14.989Z,12.47
2022-10-02T17:28:51.023Z,12.40
2022-10-02T17:31:41.988Z,12.33
2022-10-02T17:34:14.788Z,12.29
2022-10-02T17:36:47.845Z,12.26
2022-10-02T17:39:23.301Z,12.21
2022-10-02T17:42:03.710Z,12.19
2022-10-02T17:44:45.213Z,12.16
2022-10-02T17:47:21.607Z,12.11
2022-10-02T17:50:03.347Z,12.06
2022-10-02T17:53:00.261Z,12.02
2022-10-02T17:55:45.691Z,11.95
2022-10-02T17:58:35.648Z,11.88
2022-10-02T18:01:05.917Z,11.69
2022-10-02T18:03:52.890Z,11.56
2022-10-02T18:06:35.642Z,11.47
2022-10-02T18:09:27.077Z,11.34
2022-10-02T18:11:59.828Z,11.23
2022-10-02T18:14:26.449Z,11.19
2022-10-02T18:17:06.011Z,11.14
2022-10-02T18:19:52.937Z,11.10
2022-10-02T18:22:27.004Z,11.04
2022-10-02T18:25:05.022Z,11.01
2022-10-02T18:27:50.475Z,10.99
2022-10-02T18:30:24.877Z,10.97
2022-10-02T18:32:55.774Z,10.94
2022-10-02T18:35:25.884Z,10.89
2022-10-02T18:38:12.826Z,10.84
2022-10-02T18:41:00.649Z,10.79
2022-10-02T18:43:30.253Z,10.79
2022-10-02T18:46:15.499Z,10.80
2022-10-02T18:48:57.178Z,10.79
2022-10-02T18:51:23.743Z,10.78
2022-10-02T18:54:02.194Z,10.77
2022-10-02T18:56:46.119Z,10.75
2022-10-02T18:59:19.585Z,10.71
2022-10-02T19:01:49.015Z,10.67
2022-10-02T19:04:23.174Z,10.61
2022-10-02T19:06:55.467Z,10.59
2022-10-02T19:09:27.477Z,10.56
2022-10-02T19:11:58.487Z,10.55
2022-10-02T19:14:36.246Z,10.58
2022-10-02T19:17:05.896Z,10.60
2022-10-02T19:19:33.268Z,10.65
2022-10-02T19:22:01.712Z,10.70
2022-10-02T19:24:31.697Z,10.69
2022-10-02T19:27:04.787Z,10.68
2022-10-02T19:29:36.783Z,10.69
2022-10-02T19:32:09.425Z,10.63
2022-10-02T19:34:36.094Z,10.54
2022-10-02T19:37:05.381Z,10.48
2022-10-02T19:39:36.913Z,10.43
2022-10-02T19:42:07.689Z,10.39
2022-10-02T19:44:45.625Z,10.36
2022-10-02T19:47:21.502Z,10.32
2022-10-02T19:49:50.771Z,10.33
2022-10-02T19:52:36.024Z,10.34
2022-10-02T19:55:27.238Z,10.38
2022-10-02T19:57:57.504Z,10.31
2022-10-02T20:00:24.293Z,10.27
2022-10-02T20:02:54.326Z,10.27
2022-10-02T20:05:22.884Z,10.29
2022-10-02T20:07:50.951Z,10.27
2022-10-02T20:10:23.427Z,10.26
2022-10-02T20:12:55.894Z,10.26
2022-10-02T20:15:42.561Z,10.28
2022-10-02T20:18:11.138Z,10.30
2022-10-02T20:20:37.935Z,10.30
2022-10-02T20:23:07.885Z,10.33
2022-10-02T20:25:40.165Z,10.32
2022-10-02T20:28:07.129Z,10.33
2022-10-02T20:30:41.816Z,10.34
2022-10-02T20:33:18.230Z,10.35
2022-10-02T20:35:48.082Z,10.36
2022-10-02T20:38:27.613Z,10.37
2022-10-02T20:40:54.656Z,10.36
2022-10-02T20:43:47.498Z,10.39
2022-10-02T20:46:14.074Z,10.42
2022-10-02T20:49:07.036Z,10.40
2022-10-02T20:51:52.797Z,10.42
2022-10-02T20:54:19.608Z,10.43
2022-10-02T20:57:04.700Z,10.46
2022-10-02T20:59:57.027Z,10.50
2022-10-02T21:02:23.704Z,10.53
2022-10-02T21:05:03.800Z,10.55
2022-10-02T21:07:30.979Z,10.57
2022-10-02T21:10:37.762Z,10.58
2022-10-02T21:13:25.000Z,10.62
2022-10-02T21:16:00.751Z,10.66
2022-10-02T21:18:27.309Z,10.67
2022-10-02T21:20:55.497Z,10.70
2022-10-02T21:23:40.920Z,10.75
2022-10-02T21:26:26.731Z,10.78
2022-10-02T21:28:56.074Z,10.83
2022-10-02T21:31:46.128Z,10.86
2022-10-02T21:34:42.220Z,10.91
2022-10-02T21:37:08.805Z,10.95
2022-10-02T21:39:38.394Z,10.98
2022-10-02T21:42:17.631Z,11.01
2022-10-02T21:45:04.329Z,11.05
2022-10-02T21:47:55.198Z,11.11
2022-10-02T21:50:25.218Z,11.13
2022-10-02T21:53:11.299Z,11.13
2022-10-02T21:55:41.198Z,11.16
2022-10-02T21:58:19.704Z,11.21
2022-10-02T22:00:55.143Z,11.25
2022-10-02T22:03:21.836Z,11.26
2022-10-02T22:06:07.282Z,11.27
2022-10-02T22:08:40.477Z,11.28
2022-10-02T22:11:11.263Z,11.31
2022-10-02T22:13:43.267Z,11.36
2022-10-02T22:16:09.920Z,11.40
2022-10-02T22:18:39.310Z,11.41
2022-10-02T22:21:21.247Z,11.44
2022-10-02T22:23:58.752Z,11.46
2022-10-02T22:26:25.358Z,11.48
2022-10-02T22:29:12.164Z,11.52
2022-10-02T22:32:17.218Z,11.56
2022-10-02T22:34:52.368Z,11.62
2022-10-02T22:37:27.095Z,11.65
2022-10-02T22:40:01.287Z,11.68
2022-10-02T22:42:39.329Z,11.73
2022-10-02T22:45:15.244Z,11.77
2022-10-02T22:47:54.201Z,11.81
2022-10-02T22:50:39.414Z,11.83
2022-10-02T22:53:23.559Z,11.88
2022-10-02T22:55:52.000Z,11.92
2022-10-02T22:58:29.241Z,11.97
2022-10-02T23:01:08.209Z,12.00
2022-10-02T23:03:45.267Z,12.07
2022-10-02T23:06:30.576Z,12.14
2022-10-02T23:09:07.013Z,12.17
2022-10-02T23:11:52.898Z,12.20
2022-10-02T23:14:22.812Z,12.24
2022-10-02T23:16:59.585Z,12.27
2022-10-02T23:19:29.656Z,12.31
2022-10-02T23:22:00.121Z,12.38
2022-10-02T23:24:28.440Z,12.43
2022-10-02T23:27:15.292Z,12.49
2022-10-02T23:29:44.991Z,12.54
2022-10-02T23:32:11.535Z,12.58
2022-10-02T23:34:41.184Z,12.64
2022-10-02T23:37:14.354Z,12.69
2022-10-02T23:39:40.893Z,12.74
2022-10-02T23:42:11.224Z,12.77
2022-10-02T23:44:43.704Z,12.78
2022-10-02T23:47:21.167Z,12.80
2022-10-02T23:49:50.757Z,12.84
2022-10-02T23:52:26.589Z,12.87
2022-10-02T23:55:06.126Z,12.89
2022-10-02T23:57:35.892Z,12.90
